Time;durP1;ratioP1;P1;durP2;ratioP2;P2;SDS_P1;SDS_P2;PMS_P1;PMS_P2;Temp;Humidity;BMP_temperature;BMP_pressure;BME280_temperature;BME280_humidity;BME280_pressure;Samples;Min_cycle;Max_cycle;Signal;HPM_P1;HPM_P2
2021/12/01 00:01:07;;;;;;;;;;;9.50;93.00;;;;;;5028549;28;19917;-88
2021/12/01 00:03:33;;;;;;;;;;;9.50;93.00;;;;;;5011863;28;20061;-88
2021/12/01 00:05:58;;;;;;;;;;;9.50;93.00;;;;;;5030005;28;19917;-88
2021/12/01 00:08:24;;;;;;;;;;;9.50;93.10;;;;;;5011791;28;20077;-88
2021/12/01 00:10:49;;;;;;;;;;;9.50;93.10;;;;;;5012075;28;19921;-88
2021/12/01 00:13:18;;;;;;;;;;;9.50;92.90;;;;;;5010958;28;19923;-89
2021/12/01 00:15:44;;;;;;;;;;;9.50;92.80;;;;;;5009766;28;19920;-89
2021/12/01 00:18:10;;;;;;;;;;;9.50;92.70;;;;;;5015921;28;20028;-88
2021/12/01 00:20:36;;;;;;;;;;;9.50;92.60;;;;;;5038517;28;20046;-91
2021/12/01 00:23:01;;;;;;;;;;;9.50;92.50;;;;;;5040596;28;19905;-91
2021/12/01 00:25:27;;;;;;;;;;;9.40;92.80;;;;;;5037099;28;19961;-91
2021/12/01 00:27:54;;;;;;;;;;;9.40;92.70;;;;;;5054029;28;19935;-90
2021/12/01 00:30:20;;;;;;;;;;;9.40;92.60;;;;;;5032405;28;19960;-88
2021/12/01 00:32:46;;;;;;;;;;;9.30;92.90;;;;;;5031857;28;19924;-88
2021/12/01 00:35:11;;;;;;;;;;;9.30;92.90;;;;;;5016512;28;19967;-89
2021/12/01 00:37:38;;;;;;;;;;;9.30;92.90;;;;;;5015938;28;19913;-89
2021/12/01 00:40:09;;;;;;;;;;;9.30;92.90;;;;;;5016027;28;19921;-89
2021/12/01 00:42:34;;;;;;;;;;;9.30;92.80;;;;;;5016172;28;19917;-90
2021/12/01 00:45:07;;;;;;;;;;;9.30;92.60;;;;;;5016872;28;19920;-90
2021/12/01 00:47:47;;;;;;;;;;;9.30;92.70;;;;;;5015664;28;20240;-90
2021/12/01 00:50:22;;;;;;;;;;;9.30;92.80;;;;;;5015745;28;19988;-90
2021/12/01 00:52:48;;;;;;;;;;;9.30;92.90;;;;;;5016259;28;19952;-89
2021/12/01 00:55:13;;;;;;;;;;;9.20;92.70;;;;;;5031728;28;20418;-88
2021/12/01 00:57:39;;;;;;;;;;;9.20;92.80;;;;;;5015717;28;19917;-89
2021/12/01 01:00:05;;;;;;;;;;;9.30;92.70;;;;;;5016246;28;20003;-90
2021/12/01 01:02:31;;;;;;;;;;;9.30;92.70;;;;;;5015242;28;20049;-88
2021/12/01 01:04:56;;;;;;;;;;;9.30;92.50;;;;;;5016121;28;19913;-89
2021/12/01 01:07:22;;;;;;;;;;;9.20;92.60;;;;;;5015406;28;19917;-89
2021/12/01 01:09:48;;;;;;;;;;;9.30;92.50;;;;;;5015558;28;19921;-89
2021/12/01 01:17:42;;;;;;;;;;;9.20;92.30;;;;;;5034072;28;19955;-88
2021/12/01 01:20:10;;;;;;;;;;;9.20;92.50;;;;;;5034421;28;19925;-89
2021/12/01 01:22:36;;;;;;;;;;;9.20;92.50;;;;;;5016742;28;20007;-90
2021/12/01 01:25:02;;;;;;;;;;;9.20;92.10;;;;;;5015650;28;20025;-89
2021/12/01 01:27:27;;;;;;;;;;;9.30;92.20;;;;;;5014445;28;19913;-90
2021/12/01 01:29:53;;;;;;;;;;;9.30;92.10;;;;;;5013880;28;19918;-89
2021/12/01 01:32:18;;;;;;;;;;;9.30;91.90;;;;;;5014740;28;20012;-89
2021/12/01 01:34:44;;;;;;;;;;;9.30;91.80;;;;;;5015784;28;19909;-90
2021/12/01 01:37:09;;;;;;;;;;;9.20;91.80;;;;;;5014344;28;19928;-89
2021/12/01 01:39:35;;;;;;;;;;;9.30;91.80;;;;;;5015470;28;20387;-89
2021/12/01 01:42:00;;;;;;;;;;;9.20;91.70;;;;;;5013260;28;19983;-88
2021/12/01 01:44:26;;;;;;;;;;;9.20;91.70;;;;;;5033006;28;19913;-89
2021/12/01 01:46:51;;;;;;;;;;;9.20;91.40;;;;;;5032526;28;19959;-89
2021/12/01 01:51:42;;;;;;;;;;;9.30;91.20;;;;;;5033740;28;20049;-89
2021/12/01 01:54:08;;;;;;;;;;;9.30;91.30;;;;;;5014401;28;19922;-89
2021/12/01 01:56:34;;;;;;;;;;;9.20;91.10;;;;;;5012149;28;19971;-90
2021/12/01 01:59:03;;;;;;;;;;;9.30;91.20;;;;;;5014892;28;19913;-89
2021/12/01 02:04:07;;;;;;;;;;;9.20;91.00;;;;;;5032532;28;19931;-88
2021/12/01 02:06:33;;;;;;;;;;;9.30;90.90;;;;;;5014530;28;20481;-89
2021/12/01 02:08:59;;;;;;;;;;;9.20;90.80;;;;;;5018321;28;19925;-89
2021/12/01 02:11:25;;;;;;;;;;;9.30;90.80;;;;;;5023657;28;19916;-90
2021/12/01 02:13:50;;;;;;;;;;;9.10;90.80;;;;;;5016669;28;19913;-89
2021/12/01 02:16:16;;;;;;;;;;;9.20;90.80;;;;;;5013961;28;20406;-89
2021/12/01 02:18:42;;;;;;;;;;;9.10;90.60;;;;;;5013932;28;19913;-90
2021/12/01 02:21:11;;;;;;;;;;;9.20;90.70;;;;;;5014984;28;19957;-91
2021/12/01 02:23:37;;;;;;;;;;;9.20;90.60;;;;;;5015401;28;19910;-90
2021/12/01 02:26:04;;;;;;;;;;;9.10;90.60;;;;;;5032077;28;19935;-90
2021/12/01 02:28:30;;;;;;;;;;;9.20;90.70;;;;;;5012872;28;20321;-89
2021/12/01 02:30:56;;;;;;;;;;;9.20;90.40;;;;;;5013262;28;20446;-89
2021/12/01 02:33:21;;;;;;;;;;;9.20;90.00;;;;;;5013600;28;19920;-88
2021/12/01 02:35:47;;;;;;;;;;;9.10;90.30;;;;;;5014833;28;19913;-89
2021/12/01 02:38:12;;;;;;;;;;;9.10;90.00;;;;;;5014350;28;19920;-90
2021/12/01 02:40:38;;;;;;;;;;;9.00;90.20;;;;;;5032986;28;19913;-88
2021/12/01 02:43:03;;;;;;;;;;;9.10;90.40;;;;;;5014847;28;20007;-89
2021/12/01 02:45:29;;;;;;;;;;;9.00;90.20;;;;;;5034332;28;19916;-93
2021/12/01 02:47:54;;;;;;;;;;;9.10;90.10;;;;;;5028072;28;19917;-89
2021/12/01 02:50:20;;;;;;;;;;;9.10;89.90;;;;;;5016899;28;20402;-89
2021/12/01 02:52:46;;;;;;;;;;;9.10;89.90;;;;;;5022920;28;19905;-91
2021/12/01 02:55:15;;;;;;;;;;;9.10;90.00;;;;;;5031076;28;19922;-90
2021/12/01 02:57:46;;;;;;;;;;;9.00;89.70;;;;;;5013145;28;19913;-88
2021/12/01 03:00:12;;;;;;;;;;;9.00;89.60;;;;;;5031776;28;19928;-89
2021/12/01 03:02:38;;;;;;;;;;;9.00;89.20;;;;;;5013246;28;19925;-88
2021/12/01 03:05:04;;;;;;;;;;;9.00;89.50;;;;;;5033055;28;20008;-89
2021/12/01 03:07:31;;;;;;;;;;;9.10;89.30;;;;;;5036524;28;19905;-91
2021/12/01 03:09:56;;;;;;;;;;;9.10;89.00;;;;;;5025442;28;19925;-87
2021/12/01 03:12:22;;;;;;;;;;;9.10;89.00;;;;;;5012629;28;19924;-87
2021/12/01 03:14:50;;;;;;;;;;;9.00;88.80;;;;;;5010660;28;19917;-89
2021/12/01 03:17:15;;;;;;;;;;;9.10;89.20;;;;;;5011506;28;19976;-87
2021/12/01 03:19:41;;;;;;;;;;;9.00;89.20;;;;;;5013136;28;20018;-87
2021/12/01 03:22:11;;;;;;;;;;;9.00;89.40;;;;;;5012724;28;19924;-86
2021/12/01 03:24:36;;;;;;;;;;;9.00;89.10;;;;;;5012572;28;19947;-86
2021/12/01 03:27:02;;;;;;;;;;;9.10;89.00;;;;;;5029034;28;20538;-88
2021/12/01 03:29:27;;;;;;;;;;;9.00;89.30;;;;;;5011469;28;19923;-91
2021/12/01 03:31:53;;;;;;;;;;;8.90;89.60;;;;;;5011782;28;19925;-89
2021/12/01 03:34:21;;;;;;;;;;;8.90;89.30;;;;;;5030965;28;19909;-90
2021/12/01 03:36:46;;;;;;;;;;;8.90;89.00;;;;;;5035536;28;19905;-90
2021/12/01 03:39:12;;;;;;;;;;;8.90;89.20;;;;;;5026906;28;19920;-88
2021/12/01 03:41:37;;;;;;;;;;;8.80;89.20;;;;;;5012033;28;19913;-87
2021/12/01 03:44:03;;;;;;;;;;;8.80;89.50;;;;;;5012360;28;19941;-88
2021/12/01 03:46:28;;;;;;;;;;;8.80;89.60;;;;;;5011782;28;20280;-88
2021/12/01 03:48:54;;;;;;;;;;;8.80;89.70;;;;;;5011594;28;19928;-88
2021/12/01 03:51:19;;;;;;;;;;;8.80;89.50;;;;;;5012373;28;20401;-86
2021/12/01 03:53:45;;;;;;;;;;;8.80;89.50;;;;;;5033622;28;19909;-87
2021/12/01 03:56:10;;;;;;;;;;;8.80;89.40;;;;;;5035825;28;19921;-89
2021/12/01 03:58:36;;;;;;;;;;;8.80;89.40;;;;;;5023391;28;19917;-88
2021/12/01 04:01:01;;;;;;;;;;;8.80;89.10;;;;;;5033446;28;19967;-88
2021/12/01 04:03:27;;;;;;;;;;;8.70;89.40;;;;;;5015621;28;20377;-87
2021/12/01 04:06:03;;;;;;;;;;;8.70;89.30;;;;;;5024666;28;19913;-88
2021/12/01 04:08:30;;;;;;;;;;;8.60;89.50;;;;;;5017001;28;19925;-88
2021/12/01 04:10:55;;;;;;;;;;;8.60;89.50;;;;;;5016621;28;19921;-88
2021/12/01 04:13:21;;;;;;;;;;;8.60;89.30;;;;;;5019028;28;19912;-88
2021/12/01 04:15:46;;;;;;;;;;;8.60;89.60;;;;;;5017043;28;20004;-88
2021/12/01 04:18:12;;;;;;;;;;;8.60;89.90;;;;;;5033224;28;20294;-88
2021/12/01 04:20:37;;;;;;;;;;;8.60;89.90;;;;;;5015774;28;19932;-88
2021/12/01 04:23:03;;;;;;;;;;;8.50;90.00;;;;;;5016500;28;20000;-88
2021/12/01 04:25:29;;;;;;;;;;;8.50;90.20;;;;;;5015563;28;19914;-90
2021/12/01 04:27:54;;;;;;;;;;;8.50;90.40;;;;;;5016143;28;19980;-88
2021/12/01 04:30:22;;;;;;;;;;;8.50;90.00;;;;;;5015063;28;20356;-87
2021/12/01 04:32:48;;;;;;;;;;;8.50;90.10;;;;;;5015882;28;19916;-89
2021/12/01 04:35:16;;;;;;;;;;;8.50;90.00;;;;;;5032923;28;19921;-87
2021/12/01 04:37:42;;;;;;;;;;;8.40;89.90;;;;;;5032966;28;19913;-87
2021/12/01 04:40:08;;;;;;;;;;;8.50;89.70;;;;;;5016050;28;19924;-88
2021/12/01 04:42:33;;;;;;;;;;;8.50;89.50;;;;;;5015814;28;19920;-88
2021/12/01 04:44:59;;;;;;;;;;;8.50;89.40;;;;;;5015960;28;20419;-88
2021/12/01 04:47:29;;;;;;;;;;;8.50;89.50;;;;;;5014017;28;19928;-88
2021/12/01 04:49:56;;;;;;;;;;;8.50;89.20;;;;;;5016220;28;20360;-89
2021/12/01 04:52:21;;;;;;;;;;;8.60;88.90;;;;;;5033028;28;19928;-89
2021/12/01 04:54:47;;;;;;;;;;;8.50;88.90;;;;;;5015640;28;20318;-88
2021/12/01 04:57:13;;;;;;;;;;;8.50;88.90;;;;;;5014588;28;20418;-87
2021/12/01 04:59:38;;;;;;;;;;;8.50;88.80;;;;;;5015504;28;19913;-88
2021/12/01 05:02:04;;;;;;;;;;;8.50;88.30;;;;;;5016326;28;19910;-88
2021/12/01 05:04:30;;;;;;;;;;;8.60;88.20;;;;;;4997333;28;19971;-88
2021/12/01 05:06:56;;;;;;;;;;;8.60;87.40;;;;;;4996591;28;19909;-87
2021/12/01 05:09:22;;;;;;;;;;;8.60;87.60;;;;;;5032187;28;19948;-88
2021/12/01 05:11:48;;;;;;;;;;;8.60;87.80;;;;;;5029864;28;20355;-89
2021/12/01 05:14:13;;;;;;;;;;;8.60;87.70;;;;;;5033222;28;19972;-88
2021/12/01 05:16:40;;;;;;;;;;;8.60;87.60;;;;;;5030922;28;19924;-90
2021/12/01 05:19:07;;;;;;;;;;;8.60;87.10;;;;;;5026317;28;19940;-87
2021/12/01 05:21:32;;;;;;;;;;;8.60;87.10;;;;;;5015989;28;20051;-88
2021/12/01 05:23:58;;;;;;;;;;;8.60;86.70;;;;;;5012905;28;19953;-88
2021/12/01 05:26:23;;;;;;;;;;;8.60;86.60;;;;;;5015246;28;19980;-88
2021/12/01 05:28:49;;;;;;;;;;;8.60;86.40;;;;;;5016157;28;19952;-88
2021/12/01 05:31:15;;;;;;;;;;;8.60;86.20;;;;;;5015906;28;19921;-87
2021/12/01 05:33:40;;;;;;;;;;;8.60;86.50;;;;;;5015937;28;20438;-87
2021/12/01 05:36:06;;;;;;;;;;;8.60;86.20;;;;;;5016070;28;20003;-88
2021/12/01 05:38:32;;;;;;;;;;;8.70;85.80;;;;;;5016124;28;19936;-88
2021/12/01 05:40:57;;;;;;;;;;;8.70;85.90;;;;;;5016103;28;19920;-88
2021/12/01 05:43:23;;;;;;;;;;;8.60;86.00;;;;;;5024852;28;19956;-88
2021/12/01 05:45:49;;;;;;;;;;;8.70;85.90;;;;;;5015792;28;20079;-87
2021/12/01 05:48:14;;;;;;;;;;;8.60;85.20;;;;;;5015862;28;20419;-88
2021/12/01 05:50:40;;;;;;;;;;;8.60;85.50;;;;;;5015642;28;19941;-87
2021/12/01 05:53:06;;;;;;;;;;;8.70;85.30;;;;;;5016020;28;19916;-88
2021/12/01 05:55:31;;;;;;;;;;;8.60;85.60;;;;;;5015330;28;19917;-89
2021/12/01 05:57:57;;;;;;;;;;;8.70;85.20;;;;;;5015166;28;19916;-88
2021/12/01 06:00:22;;;;;;;;;;;8.70;85.60;;;;;;5013497;28;20074;-87
2021/12/01 06:02:52;;;;;;;;;;;8.80;85.10;;;;;;5016085;28;19913;-86
2021/12/01 06:05:18;;;;;;;;;;;8.70;85.10;;;;;;5004588;28;19910;-87
2021/12/01 06:07:54;;;;;;;;;;;8.80;84.80;;;;;;5009904;28;19948;-85
2021/12/01 06:10:20;;;;;;;;;;;8.70;85.20;;;;;;5016857;28;20403;-86
2021/12/01 06:12:45;;;;;;;;;;;8.70;85.20;;;;;;5016679;28;19913;-86
2021/12/01 06:15:13;;;;;;;;;;;8.70;84.70;;;;;;5014800;28;19914;-87
2021/12/01 06:17:39;;;;;;;;;;;8.80;84.90;;;;;;5015152;28;19967;-86
2021/12/01 06:20:05;;;;;;;;;;;8.60;85.30;;;;;;5015952;28;19924;-84
2021/12/01 06:22:31;;;;;;;;;;;8.60;85.40;;;;;;5047893;28;19951;-89
2021/12/01 06:24:57;;;;;;;;;;;8.60;85.40;;;;;;5034948;28;19906;-86
2021/12/01 06:27:23;;;;;;;;;;;8.60;84.90;;;;;;5030667;28;19917;-85
2021/12/01 06:29:48;;;;;;;;;;;8.60;85.40;;;;;;5034042;28;19917;-85
2021/12/01 06:32:14;;;;;;;;;;;8.50;85.60;;;;;;5016484;28;20336;-85
2021/12/01 06:34:39;;;;;;;;;;;8.60;85.10;;;;;;5014792;28;19959;-87
2021/12/01 06:37:05;;;;;;;;;;;8.50;85.70;;;;;;5015145;28;19909;-88
2021/12/01 06:39:30;;;;;;;;;;;8.50;85.90;;;;;;5015036;28;19914;-86
2021/12/01 06:41:56;;;;;;;;;;;8.50;85.80;;;;;;5017536;28;19913;-87
2021/12/01 06:44:24;;;;;;;;;;;8.50;86.10;;;;;;5016234;28;19978;-89
2021/12/01 06:46:50;;;;;;;;;;;8.50;85.90;;;;;;5018122;28;19928;-86
2021/12/01 06:49:15;;;;;;;;;;;8.50;86.10;;;;;;5039601;28;19933;-88
2021/12/01 06:51:41;;;;;;;;;;;8.50;85.70;;;;;;5038697;28;19939;-89
2021/12/01 06:54:06;;;;;;;;;;;8.40;86.00;;;;;;5021682;28;20352;-87
2021/12/01 06:56:32;;;;;;;;;;;8.30;86.50;;;;;;5014893;28;19917;-86
2021/12/01 06:58:57;;;;;;;;;;;8.30;86.80;;;;;;5033107;28;19967;-87
2021/12/01 07:01:23;;;;;;;;;;;8.20;87.20;;;;;;5016137;28;20175;-87
2021/12/01 07:03:48;;;;;;;;;;;8.20;87.90;;;;;;5016533;28;20388;-87
2021/12/01 07:06:14;;;;;;;;;;;8.10;88.30;;;;;;5014275;28;19909;-88
2021/12/01 07:08:39;;;;;;;;;;;8.00;88.80;;;;;;5008799;28;19917;-86
2021/12/01 07:11:05;;;;;;;;;;;8.00;89.20;;;;;;5026361;28;19923;-87
2021/12/01 07:13:32;;;;;;;;;;;7.90;89.40;;;;;;5003111;28;19914;-88
2021/12/01 07:15:58;;;;;;;;;;;7.90;89.80;;;;;;4994891;28;19997;-86
2021/12/01 07:18:24;;;;;;;;;;;7.90;90.20;;;;;;5028572;28;19952;-86
2021/12/01 07:20:50;;;;;;;;;;;7.90;90.50;;;;;;5014025;28;19952;-87
2021/12/01 07:23:15;;;;;;;;;;;7.90;90.50;;;;;;5016565;28;19925;-85
2021/12/01 07:25:41;;;;;;;;;;;7.80;90.90;;;;;;5014654;28;20004;-88
2021/12/01 07:28:06;;;;;;;;;;;7.80;90.90;;;;;;5017937;28;19936;-87
2021/12/01 07:30:35;;;;;;;;;;;7.80;91.20;;;;;;5031020;28;19940;-88
2021/12/01 07:33:00;;;;;;;;;;;7.80;91.20;;;;;;5031503;28;19943;-86
2021/12/01 07:35:26;;;;;;;;;;;7.90;91.30;;;;;;5018435;28;19917;-86
2021/12/01 07:37:53;;;;;;;;;;;7.80;91.30;;;;;;5018556;28;20013;-87
2021/12/01 07:40:18;;;;;;;;;;;7.80;91.40;;;;;;5032000;28;19917;-87
2021/12/01 07:42:47;;;;;;;;;;;7.80;91.20;;;;;;5020615;28;19975;-86
2021/12/01 07:45:12;;;;;;;;;;;7.80;91.30;;;;;;5017131;28;19928;-85
2021/12/01 07:47:39;;;;;;;;;;;7.80;91.30;;;;;;5031516;28;19913;-85
2021/12/01 07:50:05;;;;;;;;;;;7.80;91.50;;;;;;5031574;28;20272;-85
2021/12/01 07:52:32;;;;;;;;;;;7.80;91.50;;;;;;5014163;28;19913;-85
2021/12/01 07:54:58;;;;;;;;;;;7.80;91.50;;;;;;4971371;28;1746414;-86
2021/12/01 07:57:23;;;;;;;;;;;7.80;91.60;;;;;;5025393;28;19910;-85
2021/12/01 07:59:48;;;;;;;;;;;7.80;91.50;;;;;;5045329;28;19913;-85
2021/12/01 08:02:14;;;;;;;;;;;7.80;91.70;;;;;;5014616;28;19980;-84
2021/12/01 08:04:40;;;;;;;;;;;7.80;91.80;;;;;;5016409;28;20311;-85
2021/12/01 08:07:05;;;;;;;;;;;7.80;91.80;;;;;;5016404;28;19920;-86
2021/12/01 08:09:31;;;;;;;;;;;7.80;91.80;;;;;;5014100;28;19940;-88
2021/12/01 08:11:56;;;;;;;;;;;7.80;92.00;;;;;;5014435;28;20348;-86
2021/12/01 08:14:22;;;;;;;;;;;7.80;92.10;;;;;;5034504;28;19929;-86
2021/12/01 08:16:48;;;;;;;;;;;7.80;92.20;;;;;;5015948;28;19920;-88
2021/12/01 08:19:13;;;;;;;;;;;7.90;92.10;;;;;;5016627;28;20000;-86
2021/12/01 08:21:39;;;;;;;;;;;7.90;92.00;;;;;;5014159;28;19909;-87
2021/12/01 08:24:04;;;;;;;;;;;7.90;92.00;;;;;;5012105;28;19962;-86
2021/12/01 08:26:30;;;;;;;;;;;7.90;92.00;;;;;;5014902;28;19939;-86
2021/12/01 08:28:56;;;;;;;;;;;7.80;92.10;;;;;;5034979;28;20062;-86
2021/12/01 08:31:22;;;;;;;;;;;7.90;92.10;;;;;;5016780;28;19921;-87
2021/12/01 08:33:48;;;;;;;;;;;7.90;92.00;;;;;;5014277;28;19921;-86
2021/12/01 08:36:13;;;;;;;;;;;8.00;91.90;;;;;;5016950;28;19925;-86
2021/12/01 08:38:40;;;;;;;;;;;8.00;91.70;;;;;;5016813;28;19958;-86
2021/12/01 08:41:06;;;;;;;;;;;8.00;91.80;;;;;;5018422;28;19921;-86
2021/12/01 08:43:32;;;;;;;;;;;7.90;91.90;;;;;;5017283;28;20272;-87
2021/12/01 08:45:58;;;;;;;;;;;8.00;91.90;;;;;;5035358;28;19917;-87
2021/12/01 08:48:23;;;;;;;;;;;8.00;91.90;;;;;;5031652;28;20570;-87
2021/12/01 08:50:49;;;;;;;;;;;8.00;92.00;;;;;;5014346;28;19918;-86
2021/12/01 08:53:14;;;;;;;;;;;8.00;92.00;;;;;;5015767;28;19924;-87
2021/12/01 08:55:42;;;;;;;;;;;8.00;92.00;;;;;;5016345;28;19986;-87
2021/12/01 08:58:09;;;;;;;;;;;8.00;92.00;;;;;;5017474;28;20367;-88
2021/12/01 09:00:37;;;;;;;;;;;8.10;92.00;;;;;;5017700;28;20312;-87
2021/12/01 09:03:04;;;;;;;;;;;8.00;92.20;;;;;;4984548;28;19991;-90
2021/12/01 09:05:30;;;;;;;;;;;8.10;92.00;;;;;;4893426;28;19917;-88
2021/12/01 09:07:55;;;;;;;;;;;8.10;92.10;;;;;;4956009;28;19913;-88
2021/12/01 09:10:21;;;;;;;;;;;8.10;92.10;;;;;;4998621;28;19922;-88
2021/12/01 09:12:46;;;;;;;;;;;8.10;92.00;;;;;;5016203;28;19960;-90
2021/12/01 09:15:14;;;;;;;;;;;8.20;92.20;;;;;;5016417;28;19917;-88
2021/12/01 09:17:39;;;;;;;;;;;8.20;92.10;;;;;;5004054;28;19950;-88
2021/12/01 09:20:05;;;;;;;;;;;8.20;91.90;;;;;;5012235;28;19909;-88
2021/12/01 09:22:31;;;;;;;;;;;8.20;91.80;;;;;;4991139;28;19909;-90
2021/12/01 09:24:57;;;;;;;;;;;8.30;91.80;;;;;;4969219;28;19913;-88
2021/12/01 09:27:22;;;;;;;;;;;8.30;92.00;;;;;;5015933;28;20433;-88
2021/12/01 09:29:48;;;;;;;;;;;8.30;91.70;;;;;;5034032;28;20004;-92
2021/12/01 09:32:13;;;;;;;;;;;8.30;91.60;;;;;;5033612;28;19937;-86
2021/12/01 09:34:40;;;;;;;;;;;8.40;91.60;;;;;;5016315;28;20368;-89
2021/12/01 09:37:06;;;;;;;;;;;8.30;91.80;;;;;;5010619;28;20380;-88
2021/12/01 09:39:31;;;;;;;;;;;8.40;91.90;;;;;;5013620;28;19909;-87
2021/12/01 09:41:57;;;;;;;;;;;8.40;91.70;;;;;;4925248;28;20247;-89
2021/12/01 09:44:22;;;;;;;;;;;8.50;91.60;;;;;;4912291;28;19973;-89
2021/12/01 09:46:48;;;;;;;;;;;8.50;91.50;;;;;;5047422;28;19909;-88
2021/12/01 09:49:13;;;;;;;;;;;8.50;91.30;;;;;;5026939;28;20020;-88
2021/12/01 09:51:39;;;;;;;;;;;8.50;91.30;;;;;;5021916;28;19923;-88
2021/12/01 09:54:04;;;;;;;;;;;8.50;91.30;;;;;;5047276;28;19936;-88
2021/12/01 09:56:30;;;;;;;;;;;8.50;91.50;;;;;;5054323;28;19940;-88
2021/12/01 09:58:56;;;;;;;;;;;8.50;91.50;;;;;;5024561;28;19909;-87
2021/12/01 10:01:22;;;;;;;;;;;8.60;91.10;;;;;;5013147;28;19920;-89
2021/12/01 10:03:48;;;;;;;;;;;8.60;91.20;;;;;;4868074;28;20197;-89
2021/12/01 10:06:17;;;;;;;;;;;8.60;91.30;;;;;;4913840;28;20245;-89
2021/12/01 10:08:44;;;;;;;;;;;8.60;91.20;;;;;;4912889;28;20300;-89
2021/12/01 10:11:11;;;;;;;;;;;8.60;90.90;;;;;;4868405;28;20380;-90
2021/12/01 10:13:39;;;;;;;;;;;8.60;91.10;;;;;;4782431;28;19909;-86
2021/12/01 10:16:06;;;;;;;;;;;8.60;91.30;;;;;;4795730;28;19913;-90
2021/12/01 10:18:39;;;;;;;;;;;8.60;91.30;;;;;;4870455;28;19909;-87
2021/12/01 10:21:12;;;;;;;;;;;8.70;91.20;;;;;;5018363;28;19916;-88
2021/12/01 10:23:41;;;;;;;;;;;8.60;91.20;;;;;;5013831;28;20300;-87
2021/12/01 10:26:33;;;;;;;;;;;8.60;91.50;;;;;;5008740;28;19916;-87
2021/12/01 10:29:00;;;;;;;;;;;8.60;91.50;;;;;;5031445;28;20438;-88
2021/12/01 10:31:45;;;;;;;;;;;8.70;91.70;;;;;;5013045;28;19917;-88
2021/12/01 10:34:15;;;;;;;;;;;8.60;92.00;;;;;;5011948;28;20311;-87
2021/12/01 10:36:41;;;;;;;;;;;8.60;92.10;;;;;;5015957;28;20334;-86
2021/12/01 10:39:06;;;;;;;;;;;8.60;92.00;;;;;;5019698;28;19959;-85
2021/12/01 10:41:36;;;;;;;;;;;8.60;92.10;;;;;;5015239;28;20008;-86
2021/12/01 10:44:09;;;;;;;;;;;8.70;92.00;;;;;;5033188;28;19913;-84
2021/12/01 10:46:48;;;;;;;;;;;8.70;92.20;;;;;;5011209;28;19935;-88
2021/12/01 10:52:25;;;;;;;;;;;9.00;91.80;;;;;;5020130;28;19928;-87
2021/12/01 10:55:01;;;;;;;;;;;8.80;91.50;;;;;;5011013;28;20372;-87
2021/12/01 10:57:26;;;;;;;;;;;8.80;91.80;;;;;;5013125;28;19917;-87
2021/12/01 11:00:01;;;;;;;;;;;8.80;92.20;;;;;;5015351;28;19914;-86
2021/12/01 11:02:40;;;;;;;;;;;8.80;92.20;;;;;;5014954;28;19921;-87
2021/12/01 11:05:06;;;;;;;;;;;8.80;92.10;;;;;;5014905;28;19928;-86
2021/12/01 11:07:32;;;;;;;;;;;8.90;91.90;;;;;;5011995;28;19913;-86
2021/12/01 11:10:11;;;;;;;;;;;8.80;91.90;;;;;;5013685;28;19956;-86
2021/12/01 11:12:36;;;;;;;;;;;8.80;91.70;;;;;;5014221;28;20081;-86
2021/12/01 11:15:19;;;;;;;;;;;8.90;91.80;;;;;;5032800;28;19913;-85
2021/12/01 11:17:45;;;;;;;;;;;9.00;91.80;;;;;;5013962;28;19960;-86
2021/12/01 11:20:11;;;;;;;;;;;8.90;91.70;;;;;;5036890;28;19912;-86
2021/12/01 11:22:37;;;;;;;;;;;8.90;91.70;;;;;;5014391;28;19913;-86
2021/12/01 11:25:22;;;;;;;;;;;8.90;91.60;;;;;;5014711;28;19909;-86
2021/12/01 11:27:48;;;;;;;;;;;8.90;91.60;;;;;;5027029;28;19921;-86
2021/12/01 11:30:19;;;;;;;;;;;8.90;91.60;;;;;;5014286;28;20056;-86
2021/12/01 11:32:45;;;;;;;;;;;9.00;91.70;;;;;;5013512;28;19921;-85
2021/12/01 11:35:10;;;;;;;;;;;8.90;91.50;;;;;;5014009;28;19913;-85
2021/12/01 11:37:36;;;;;;;;;;;9.00;91.50;;;;;;5032093;28;20062;-87
2021/12/01 11:40:03;;;;;;;;;;;8.90;91.80;;;;;;5015084;28;19917;-84
2021/12/01 11:42:28;;;;;;;;;;;9.00;91.80;;;;;;5035759;28;20264;-85
2021/12/01 11:44:55;;;;;;;;;;;9.00;92.00;;;;;;5030969;28;19920;-85
2021/12/01 11:47:21;;;;;;;;;;;9.00;92.10;;;;;;5019175;28;20011;-83
2021/12/01 11:49:49;;;;;;;;;;;9.00;92.10;;;;;;5041213;28;19972;-85
2021/12/01 11:52:15;;;;;;;;;;;9.00;92.10;;;;;;5037276;28;19919;-85
2021/12/01 11:54:41;;;;;;;;;;;9.10;91.90;;;;;;5051302;28;19936;-85
2021/12/01 11:57:08;;;;;;;;;;;9.00;91.90;;;;;;5045176;28;20443;-85
2021/12/01 11:59:38;;;;;;;;;;;9.00;91.80;;;;;;5049559;28;19920;-84
2021/12/01 12:02:03;;;;;;;;;;;9.00;91.90;;;;;;5016191;28;19913;-85
2021/12/01 12:04:30;;;;;;;;;;;9.00;91.70;;;;;;5015432;28;20376;-84
2021/12/01 12:07:00;;;;;;;;;;;9.00;91.60;;;;;;5020025;28;19913;-84
2021/12/01 12:09:26;;;;;;;;;;;9.00;91.50;;;;;;5035579;28;19993;-84
2021/12/01 12:11:55;;;;;;;;;;;8.90;91.40;;;;;;5010895;28;19921;-84
2021/12/01 12:14:32;;;;;;;;;;;8.80;91.20;;;;;;5021940;28;19909;-85
2021/12/01 12:17:07;;;;;;;;;;;8.80;91.60;;;;;;5021258;28;20012;-85
2021/12/01 12:19:51;;;;;;;;;;;8.80;91.60;;;;;;5031208;28;19917;-86
2021/12/01 12:22:32;;;;;;;;;;;8.80;91.90;;;;;;5043530;28;20425;-84
2021/12/01 12:24:57;;;;;;;;;;;8.70;91.50;;;;;;5028301;28;20307;-85
2021/12/01 12:27:33;;;;;;;;;;;8.70;91.00;;;;;;5049560;28;19963;-86
2021/12/01 12:30:00;;;;;;;;;;;8.70;91.10;;;;;;5034028;28;19909;-85
2021/12/01 12:32:29;;;;;;;;;;;8.60;91.00;;;;;;5018354;28;19913;-89
2021/12/01 12:34:56;;;;;;;;;;;8.60;90.60;;;;;;5014422;28;19909;-91
2021/12/01 12:37:23;;;;;;;;;;;8.60;90.60;;;;;;5019395;28;19913;-89
2021/12/01 12:39:48;;;;;;;;;;;8.60;90.60;;;;;;5017582;28;19913;-89
2021/12/01 12:42:14;;;;;;;;;;;8.50;90.40;;;;;;5016790;28;19920;-87
2021/12/01 12:47:45;;;;;;;;;;;8.60;90.20;;;;;;5021600;28;19974;-92
2021/12/01 12:50:16;;;;;;;;;;;8.60;90.10;;;;;;5017191;28;19909;-91
2021/12/01 12:52:48;;;;;;;;;;;8.60;90.10;;;;;;5016571;28;20361;-91
2021/12/01 12:55:23;;;;;;;;;;;8.60;90.40;;;;;;5017372;28;19963;-92
2021/12/01 12:58:00;;;;;;;;;;;8.70;90.00;;;;;;5033046;28;20004;-92
2021/12/01 13:00:35;;;;;;;;;;;8.80;90.10;;;;;;5017882;28;19913;-91
2021/12/01 13:03:21;;;;;;;;;;;8.80;88.90;;;;;;5040782;28;19921;-91
2021/12/01 13:05:48;;;;;;;;;;;8.70;89.10;;;;;;5023245;28;19912;-86
2021/12/01 13:08:32;;;;;;;;;;;8.80;89.20;;;;;;5023453;28;19913;-86
2021/12/01 13:10:58;;;;;;;;;;;8.80;88.60;;;;;;5027677;28;19977;-87
2021/12/01 13:13:29;;;;;;;;;;;8.80;88.50;;;;;;5037368;28;19920;-87
2021/12/01 13:15:55;;;;;;;;;;;8.80;88.80;;;;;;5036556;28;19957;-87
2021/12/01 13:18:22;;;;;;;;;;;8.80;87.90;;;;;;5024309;28;19913;-88
2021/12/01 13:20:48;;;;;;;;;;;8.80;87.90;;;;;;5033284;28;19966;-89
2021/12/01 13:23:14;;;;;;;;;;;8.70;87.60;;;;;;5045438;28;19912;-89
2021/12/01 13:25:41;;;;;;;;;;;8.80;87.80;;;;;;5018573;28;20043;-88
2021/12/01 13:28:07;;;;;;;;;;;8.80;87.50;;;;;;5018080;28;19944;-89
2021/12/01 13:30:34;;;;;;;;;;;8.60;87.60;;;;;;5016757;28;20008;-89
2021/12/01 13:33:10;;;;;;;;;;;8.70;88.20;;;;;;5016570;28;20316;-89
2021/12/01 13:35:36;;;;;;;;;;;8.80;87.40;;;;;;5016169;28;19980;-90
2021/12/01 13:38:02;;;;;;;;;;;8.80;87.80;;;;;;5015677;28;20020;-90
2021/12/01 13:40:28;;;;;;;;;;;8.70;87.40;;;;;;5016456;28;19909;-89
2021/12/01 13:42:53;;;;;;;;;;;8.70;87.40;;;;;;5015929;28;19910;-90
2021/12/01 13:45:19;;;;;;;;;;;8.70;87.40;;;;;;5016463;28;20016;-89
2021/12/01 13:47:44;;;;;;;;;;;8.60;87.60;;;;;;5015221;28;19986;-88
2021/12/01 13:50:10;;;;;;;;;;;8.60;86.90;;;;;;5008168;28;19914;-88
2021/12/01 13:52:37;;;;;;;;;;;8.60;87.10;;;;;;5016171;28;19909;-88
2021/12/01 13:55:09;;;;;;;;;;;8.60;87.00;;;;;;5005864;28;19932;-88
2021/12/01 13:57:35;;;;;;;;;;;8.60;86.30;;;;;;4996373;28;19928;-88
2021/12/01 14:00:01;;;;;;;;;;;8.60;86.90;;;;;;5014893;28;20012;-87
2021/12/01 14:02:31;;;;;;;;;;;8.50;86.40;;;;;;4996331;28;19968;-88
2021/12/01 14:04:58;;;;;;;;;;;8.60;86.70;;;;;;5025270;28;19909;-88
2021/12/01 14:07:23;;;;;;;;;;;8.60;86.80;;;;;;5025135;28;19909;-88
2021/12/01 14:09:53;;;;;;;;;;;8.60;86.40;;;;;;5015420;28;19921;-88
2021/12/01 14:12:41;;;;;;;;;;;8.60;86.50;;;;;;5032364;28;19921;-87
2021/12/01 14:15:07;;;;;;;;;;;8.50;86.30;;;;;;5014588;28;19916;-88
2021/12/01 14:17:33;;;;;;;;;;;8.50;86.50;;;;;;5015463;28;19913;-89
2021/12/01 14:20:31;;;;;;;;;;;8.50;86.30;;;;;;5015941;28;20008;-89
2021/12/01 14:22:58;;;;;;;;;;;8.40;86.70;;;;;;5033034;28;19913;-88
2021/12/01 14:25:24;;;;;;;;;;;8.50;86.70;;;;;;5006716;28;19917;-87
2021/12/01 14:27:50;;;;;;;;;;;8.50;86.80;;;;;;5015546;28;19913;-87
2021/12/01 14:30:17;;;;;;;;;;;8.40;86.50;;;;;;5035870;28;20003;-87
2021/12/01 14:32:46;;;;;;;;;;;8.40;86.90;;;;;;5009719;28;19913;-89
2021/12/01 14:35:12;;;;;;;;;;;8.40;86.90;;;;;;5019598;28;20290;-86
2021/12/01 14:37:40;;;;;;;;;;;8.50;86.50;;;;;;5023758;28;19993;-89
2021/12/01 14:40:07;;;;;;;;;;;8.50;86.90;;;;;;5046399;28;19912;-89
2021/12/01 14:42:33;;;;;;;;;;;8.50;86.30;;;;;;5050723;28;19917;-90
2021/12/01 14:45:06;;;;;;;;;;;8.50;85.30;;;;;;5039800;28;19919;-89
2021/12/01 14:47:33;;;;;;;;;;;8.50;85.60;;;;;;5016530;28;19909;-89